createdAt,value
2022-09-28T00:01:19.892Z,67.33
2022-09-28T00:04:22.498Z,67.73
2022-09-28T00:07:24.496Z,67.94
2022-09-28T00:10:26.789Z,68.16
2022-09-28T00:13:29.491Z,68.06
2022-09-28T00:16:33.278Z,68.63
2022-09-28T00:19:35.324Z,68.41
2022-09-28T00:22:37.698Z,68.42
2022-09-28T00:25:39.728Z,68.42
2022-09-28T00:28:41.979Z,68.38
2022-09-28T00:31:44.273Z,68.26
2022-09-28T00:34:46.606Z,68.05
2022-09-28T00:37:49.075Z,68.00
2022-09-28T00:40:52.043Z,68.01
2022-09-28T00:44:14.160Z,67.61
2022-09-28T00:47:37.357Z,67.81
2022-09-28T00:50:39.767Z,68.02
2022-09-28T00:53:43.903Z,68.23
2022-09-28T00:56:47.525Z,68.69
2022-09-28T00:59:51.180Z,68.78
2022-09-28T01:02:53.531Z,68.87
2022-09-28T01:05:57.771Z,68.39
2022-09-28T01:09:03.003Z,68.77
2022-09-28T01:12:05.546Z,68.51
2022-09-28T01:15:07.770Z,68.66
2022-09-28T01:18:17.009Z,68.00
2022-09-28T01:21:20.463Z,68.10
2022-09-28T01:24:41.408Z,67.92
2022-09-28T01:27:59.870Z,67.08
2022-09-28T01:31:09.552Z,66.89
2022-09-28T01:34:16.196Z,66.74
2022-09-28T01:37:19.991Z,66.75
2022-09-28T01:40:24.284Z,66.71
2022-09-28T01:43:27.755Z,67.10
2022-09-28T01:46:42.154Z,67.35
2022-09-28T01:49:47.163Z,67.31
2022-09-28T01:52:55.420Z,67.55
2022-09-28T01:56:04.569Z,67.69
2022-09-28T01:59:16.010Z,68.21
2022-09-28T02:02:22.370Z,68.07
2022-09-28T02:05:31.570Z,68.28
2022-09-28T02:08:36.423Z,67.83
2022-09-28T02:11:42.238Z,67.78
2022-09-28T02:14:45.572Z,68.10
2022-09-28T02:17:47.990Z,68.02
2022-09-28T02:20:58.835Z,67.97
2022-09-28T02:24:07.008Z,68.25
2022-09-28T02:27:18.478Z,68.00
2022-09-28T02:30:21.244Z,68.05
2022-09-28T02:33:28.818Z,68.36
2022-09-28T02:36:32.270Z,68.47
2022-09-28T02:39:34.320Z,68.03
2022-09-28T02:42:46.762Z,68.36
2022-09-28T02:45:52.632Z,68.57
2022-09-28T02:49:20.806Z,68.35
2022-09-28T02:52:41.569Z,68.33
2022-09-28T02:55:56.416Z,68.28
2022-09-28T02:58:58.433Z,68.13
2022-09-28T03:02:24.899Z,67.65
2022-09-28T03:05:35.375Z,67.60
2022-09-28T03:08:56.679Z,67.38
2022-09-28T03:12:03.628Z,67.44
2022-09-28T03:15:26.246Z,68.08
2022-09-28T03:18:28.603Z,68.16
2022-09-28T03:21:30.898Z,68.40
2022-09-28T03:24:32.989Z,68.74
2022-09-28T03:27:35.270Z,68.82
2022-09-28T03:30:37.286Z,69.03
2022-09-28T03:33:39.895Z,68.82
2022-09-28T03:36:41.943Z,69.00
2022-09-28T03:39:44.340Z,69.20
2022-09-28T03:42:46.914Z,69.17
2022-09-28T03:45:55.535Z,69.00
2022-09-28T03:49:00.975Z,68.85
2022-09-28T03:52:04.317Z,68.54
2022-09-28T03:55:06.500Z,68.48
2022-09-28T03:58:08.807Z,68.54
2022-09-28T04:01:16.483Z,68.68
2022-09-28T04:04:19.950Z,68.82
2022-09-28T04:07:21.972Z,68.71
2022-09-28T04:10:24.946Z,68.73
2022-09-28T04:13:28.071Z,69.42
2022-09-28T04:16:30.442Z,68.70
2022-09-28T04:19:33.325Z,69.05
2022-09-28T04:22:37.686Z,68.93
2022-09-28T04:25:39.847Z,69.09
2022-09-28T04:29:06.307Z,69.06
2022-09-28T04:32:09.723Z,68.56
2022-09-28T04:35:12.152Z,68.84
2022-09-28T04:38:14.146Z,68.84
2022-09-28T04:41:16.780Z,68.96
2022-09-28T04:44:18.836Z,69.34
2022-09-28T04:47:21.196Z,69.25
2022-09-28T04:50:24.622Z,68.99
2022-09-28T04:53:41.243Z,68.61
2022-09-28T04:56:43.259Z,68.99
2022-09-28T04:59:45.724Z,69.04
2022-09-28T05:02:47.750Z,69.02
2022-09-28T05:05:52.386Z,69.20
2022-09-28T05:08:57.366Z,69.26
2022-09-28T05:11:59.758Z,69.28
2022-09-28T05:15:01.806Z,68.95
2022-09-28T05:18:04.376Z,69.20
2022-09-28T05:21:12.859Z,68.73
2022-09-28T05:24:15.735Z,68.67
2022-09-28T05:27:18.595Z,68.81
2022-09-28T05:30:22.765Z,69.02
2022-09-28T05:33:25.609Z,69.06
2022-09-28T05:36:28.061Z,69.17
2022-09-28T05:39:30.050Z,68.99
2022-09-28T05:42:32.331Z,68.13
2022-09-28T05:45:34.518Z,68.06
2022-09-28T05:48:38.078Z,67.95
2022-09-28T05:51:40.212Z,67.65
2022-09-28T05:54:43.855Z,67.48
2022-09-28T05:57:46.122Z,66.45
2022-09-28T06:00:53.953Z,66.26
2022-09-28T06:03:56.283Z,66.03
2022-09-28T06:06:58.891Z,66.11
2022-09-28T06:10:01.406Z,66.04
2022-09-28T06:13:06.614Z,65.75
2022-09-28T06:16:14.216Z,64.96
2022-09-28T06:19:16.318Z,64.72
2022-09-28T06:22:18.693Z,64.24
2022-09-28T06:25:22.259Z,63.81
2022-09-28T06:28:26.052Z,62.97
2022-09-28T06:31:30.138Z,63.40
2022-09-28T06:34:32.449Z,62.47
2022-09-28T06:37:34.544Z,62.67
2022-09-28T06:40:37.453Z,61.53
2022-09-28T06:43:39.668Z,60.59
2022-09-28T06:46:43.378Z,61.01
2022-09-28T06:49:51.260Z,60.39
2022-09-28T06:52:57.182Z,58.72
2022-09-28T06:55:59.896Z,58.96
2022-09-28T06:59:04.163Z,58.66
2022-09-28T07:02:08.903Z,57.79
2022-09-28T07:05:13.496Z,58.62
2022-09-28T07:08:15.948Z,58.01
2022-09-28T07:11:20.376Z,58.66
2022-09-28T07:14:42.204Z,57.91
2022-09-28T07:17:57.981Z,57.93
2022-09-28T07:21:04.149Z,57.08
2022-09-28T07:24:06.913Z,56.16
2022-09-28T07:27:10.770Z,56.24
2022-09-28T07:30:13.607Z,56.06
2022-09-28T07:33:17.170Z,54.55
2022-09-28T07:36:20.908Z,53.90
2022-09-28T07:39:23.210Z,49.15
2022-09-28T07:42:30.107Z,41.43
2022-09-28T07:45:36.701Z,35.07
2022-09-28T07:48:42.825Z,31.63
2022-09-28T07:51:44.919Z,28.55
2022-09-28T07:54:52.086Z,25.44
2022-09-28T07:58:01.648Z,24.92
2022-09-28T08:01:08.731Z,23.24
2022-09-28T08:04:11.280Z,25.23
2022-09-28T08:07:16.634Z,21.39
2022-09-28T08:10:22.325Z,21.20
2022-09-28T08:13:29.092Z,22.08
2022-09-28T08:16:32.394Z,30.01
2022-09-28T08:19:53.537Z,31.33
2022-09-28T08:22:56.906Z,33.75
2022-09-28T08:25:59.120Z,36.16
2022-09-28T08:29:01.566Z,37.08
2022-09-28T08:32:08.158Z,38.43
2022-09-28T08:35:11.880Z,40.61
2022-09-28T08:38:14.332Z,43.29
2022-09-28T08:41:17.611Z,43.65
2022-09-28T08:44:24.374Z,43.74
2022-09-28T08:47:52.476Z,44.75
2022-09-28T08:50:59.362Z,44.50
2022-09-28T08:54:12.652Z,46.34
2022-09-28T08:57:23.003Z,47.01
2022-09-28T09:00:38.682Z,46.09
2022-09-28T09:03:45.320Z,44.75
2022-09-28T09:06:56.633Z,44.00
2022-09-28T09:10:13.512Z,43.37
2022-09-28T09:13:31.571Z,43.54
2022-09-28T09:16:43.539Z,44.92
2022-09-28T09:19:46.241Z,44.59
2022-09-28T09:22:59.779Z,45.45
2022-09-28T09:26:12.439Z,45.66
2022-09-28T09:29:34.302Z,45.80
2022-09-28T09:32:36.567Z,45.59
2022-09-28T09:35:45.257Z,45.51
2022-09-28T09:38:58.279Z,46.25
2022-09-28T09:42:21.115Z,44.96
2022-09-28T09:45:33.327Z,43.64
2022-09-28T09:48:39.550Z,42.56
2022-09-28T09:51:44.966Z,41.70
2022-09-28T09:54:51.897Z,40.48
2022-09-28T09:58:04.188Z,39.86
2022-09-28T10:01:13.161Z,40.58
2022-09-28T10:04:26.801Z,42.66
2022-09-28T10:07:31.975Z,43.82
2022-09-28T10:10:37.285Z,45.09
2022-09-28T10:13:40.347Z,45.16
2022-09-28T10:16:46.114Z,46.18
2022-09-28T10:19:49.344Z,47.06
2022-09-28T10:22:58.064Z,47.58
2022-09-28T10:26:05.975Z,47.59
2022-09-28T10:29:15.197Z,47.91
2022-09-28T10:32:18.482Z,47.41
2022-09-28T10:35:23.243Z,45.95
2022-09-28T10:38:26.213Z,45.29
2022-09-28T10:41:31.660Z,45.36
2022-09-28T10:44:35.272Z,44.87
2022-09-28T10:47:37.953Z,44.50
2022-09-28T10:50:40.844Z,45.11
2022-09-28T10:53:58.209Z,46.02
2022-09-28T10:57:00.922Z,45.82
2022-09-28T11:00:06.168Z,45.76
2022-09-28T11:03:19.420Z,45.63
2022-09-28T11:06:38.281Z,45.54
2022-09-28T11:09:45.059Z,46.95
2022-09-28T11:12:49.599Z,46.73
2022-09-28T11:15:53.012Z,46.50
2022-09-28T11:18:57.802Z,46.41
2022-09-28T11:22:00.902Z,45.32
2022-09-28T11:25:16.453Z,44.15
2022-09-28T11:28:24.813Z,45.03
2022-09-28T11:31:28.169Z,46.35
2022-09-28T11:35:00.183Z,47.04
2022-09-28T11:38:12.274Z,46.57
2022-09-28T11:41:34.074Z,45.63
2022-09-28T11:44:36.335Z,44.85
2022-09-28T11:47:41.665Z,44.26
2022-09-28T11:50:56.779Z,44.30
2022-09-28T11:54:02.497Z,44.73
2022-09-28T11:57:05.384Z,43.21
2022-09-28T12:00:11.892Z,42.83
2022-09-28T12:03:21.932Z,43.13
2022-09-28T12:06:29.265Z,42.94
2022-09-28T12:09:50.823Z,43.03
2022-09-28T12:13:01.381Z,42.89
2022-09-28T12:16:32.835Z,42.88
2022-09-28T12:19:44.189Z,43.04
2022-09-28T12:23:02.709Z,43.16
2022-09-28T12:26:10.746Z,42.26
2022-09-28T12:29:19.251Z,42.09
2022-09-28T12:32:30.830Z,42.20
2022-09-28T12:35:52.112Z,42.10
2022-09-28T12:39:18.941Z,44.02
2022-09-28T12:42:28.709Z,43.79
2022-09-28T12:45:53.089Z,43.75
2022-09-28T12:49:43.643Z,44.63
2022-09-28T12:52:33.007Z,45.43
2022-09-28T12:55:44.971Z,45.88
2022-09-28T12:58:48.475Z,45.56
2022-09-28T13:01:59.960Z,44.04
2022-09-28T13:05:14.607Z,43.87
2022-09-28T13:08:16.648Z,43.81
2022-09-28T13:11:37.354Z,43.24
2022-09-28T13:14:39.413Z,43.13
2022-09-28T13:18:01.720Z,43.03
2022-09-28T13:21:06.796Z,43.32
2022-09-28T13:24:30.991Z,43.28
2022-09-28T13:27:37.538Z,42.87
2022-09-28T13:30:40.428Z,42.63
2022-09-28T13:33:43.925Z,44.48
2022-09-28T13:36:48.337Z,44.99
2022-09-28T13:39:56.448Z,44.71
2022-09-28T13:43:03.947Z,44.35
2022-09-28T13:46:18.824Z,44.08
2022-09-28T13:49:21.193Z,44.14
2022-09-28T13:52:35.514Z,43.89
2022-09-28T13:55:47.581Z,44.33
2022-09-28T13:58:53.731Z,44.19
2022-09-28T14:02:15.078Z,44.25
2022-09-28T14:05:23.234Z,44.37
2022-09-28T14:08:32.007Z,44.78
2022-09-28T14:11:34.841Z,44.83
2022-09-28T14:14:48.649Z,44.33
2022-09-28T14:17:54.571Z,44.23
2022-09-28T14:21:02.609Z,43.83
2022-09-28T14:24:23.382Z,44.56
2022-09-28T14:27:40.393Z,45.18
2022-09-28T14:30:42.824Z,45.79
2022-09-28T14:33:54.752Z,46.07
2022-09-28T14:37:15.793Z,46.19
2022-09-28T14:40:44.799Z,45.98
2022-09-28T14:44:02.762Z,45.95
2022-09-28T14:47:24.738Z,45.95
2022-09-28T14:50:28.353Z,46.40
2022-09-28T14:53:30.436Z,46.42
2022-09-28T14:56:44.226Z,46.78
2022-09-28T14:59:47.836Z,46.89
2022-09-28T15:02:52.620Z,47.26
2022-09-28T15:05:55.313Z,47.57
2022-09-28T15:08:57.624Z,47.77
2022-09-28T15:12:07.714Z,48.23
2022-09-28T15:15:24.462Z,48.39
2022-09-28T15:18:55.814Z,48.32
2022-09-28T15:21:58.157Z,48.94
2022-09-28T15:25:02.937Z,48.89
2022-09-28T15:28:18.564Z,49.07
2022-09-28T15:31:22.770Z,49.11
2022-09-28T15:34:48.025Z,49.33
2022-09-28T15:37:52.047Z,49.44
2022-09-28T15:40:54.903Z,49.66
2022-09-28T15:44:12.100Z,49.73
2022-09-28T15:47:16.021Z,49.78
2022-09-28T15:50:22.952Z,49.70
2022-09-28T15:53:25.420Z,49.72
2022-09-28T15:56:29.184Z,49.63
2022-09-28T15:59:39.703Z,49.74
2022-09-28T16:02:56.551Z,49.84
2022-09-28T16:05:58.798Z,49.89
2022-09-28T16:09:00.805Z,49.93
2022-09-28T16:12:11.524Z,50.02
2022-09-28T16:15:20.599Z,50.11
2022-09-28T16:18:23.624Z,50.48
2022-09-28T16:21:28.590Z,50.58
2022-09-28T16:24:35.178Z,50.82
2022-09-28T16:27:41.887Z,50.95
2022-09-28T16:30:59.557Z,51.08
2022-09-28T16:34:11.669Z,51.29
2022-09-28T16:37:31.520Z,51.64
2022-09-28T16:40:34.791Z,51.71
2022-09-28T16:43:37.111Z,51.85
2022-09-28T16:46:39.323Z,52.17
2022-09-28T16:49:42.142Z,52.34
2022-09-28T16:53:02.745Z,52.46
2022-09-28T16:56:05.817Z,52.46
2022-09-28T16:59:13.605Z,52.73
2022-09-28T17:02:42.222Z,52.63
2022-09-28T17:05:40.252Z,52.81
2022-09-28T17:08:43.207Z,52.75
2022-09-28T17:11:45.316Z,52.55
2022-09-28T17:14:47.905Z,52.61
2022-09-28T17:17:50.514Z,52.49
2022-09-28T17:20:55.099Z,52.76
2022-09-28T17:23:57.149Z,53.06
2022-09-28T17:27:00.815Z,53.81
2022-09-28T17:30:02.967Z,54.06
2022-09-28T17:33:05.374Z,54.76
2022-09-28T17:36:10.436Z,55.42
2022-09-28T17:39:14.120Z,56.06
2022-09-28T17:42:17.302Z,56.66
2022-09-28T17:45:19.589Z,57.05
2022-09-28T17:48:24.761Z,57.49
2022-09-28T17:51:28.751Z,58.23
2022-09-28T17:54:30.808Z,58.74
2022-09-28T17:57:35.277Z,58.67
2022-09-28T18:00:37.327Z,60.21
2022-09-28T18:03:39.834Z,60.74
2022-09-28T18:06:43.229Z,61.55
2022-09-28T18:09:45.767Z,62.55
2022-09-28T18:12:48.210Z,62.92
2022-09-28T18:15:54.603Z,63.40
2022-09-28T18:18:59.233Z,63.16
2022-09-28T18:22:01.819Z,64.91
2022-09-28T18:25:04.439Z,65.60
2022-09-28T18:28:07.235Z,66.05
2022-09-28T18:31:10.026Z,66.16
2022-09-28T18:34:13.649Z,66.95
2022-09-28T18:37:15.775Z,67.53
2022-09-28T18:40:19.480Z,67.26
2022-09-28T18:43:21.794Z,68.82
2022-09-28T18:46:27.138Z,69.27
2022-09-28T18:49:30.911Z,69.67
2022-09-28T18:52:35.788Z,69.68
2022-09-28T18:55:42.063Z,70.34
2022-09-28T18:58:45.409Z,70.41
2022-09-28T19:01:47.521Z,70.82
2022-09-28T19:04:49.881Z,70.90
2022-09-28T19:07:52.075Z,70.98
2022-09-28T19:11:03.392Z,71.78
2022-09-28T19:14:05.474Z,72.06
2022-09-28T19:17:07.932Z,72.08
2022-09-28T19:20:10.023Z,72.79
2022-09-28T19:23:12.297Z,72.88
2022-09-28T19:26:15.904Z,73.35
2022-09-28T19:29:18.466Z,73.16
2022-09-28T19:32:20.601Z,73.40
2022-09-28T19:35:22.935Z,73.50
2022-09-28T19:38:25.250Z,74.04
2022-09-28T19:41:46.774Z,74.08
2022-09-28T19:44:48.848Z,74.32
2022-09-28T19:47:51.274Z,74.39
2022-09-28T19:51:00.569Z,74.85
2022-09-28T19:54:04.473Z,75.45
2022-09-28T19:57:08.644Z,75.33
2022-09-28T20:00:11.644Z,76.00
2022-09-28T20:03:14.375Z,76.32
2022-09-28T20:06:17.422Z,76.43
2022-09-28T20:09:20.249Z,76.94
2022-09-28T20:12:22.503Z,76.77
2022-09-28T20:15:25.255Z,76.81
2022-09-28T20:18:27.524Z,77.38
2022-09-28T20:21:30.314Z,77.41
2022-09-28T20:24:32.654Z,77.05
2022-09-28T20:27:35.019Z,77.38
2022-09-28T20:30:37.382Z,77.32
2022-09-28T20:33:39.808Z,77.37
2022-09-28T20:36:42.443Z,77.29
2022-09-28T20:39:45.278Z,77.76
2022-09-28T20:42:47.375Z,78.11
2022-09-28T20:45:50.571Z,77.91
2022-09-28T20:48:55.019Z,76.99
2022-09-28T20:51:59.480Z,77.53
2022-09-28T20:55:01.547Z,78.69
2022-09-28T20:58:04.578Z,78.23
2022-09-28T21:01:09.564Z,78.36
2022-09-28T21:04:11.999Z,77.65
2022-09-28T21:07:14.084Z,77.73
2022-09-28T21:10:16.712Z,77.87
2022-09-28T21:13:18.752Z,77.84
2022-09-28T21:16:21.126Z,78.12
2022-09-28T21:19:24.294Z,78.19
2022-09-28T21:22:28.965Z,78.08
2022-09-28T21:25:31.286Z,78.38
2022-09-28T21:28:33.961Z,78.63
2022-09-28T21:31:40.131Z,78.77
2022-09-28T21:34:42.397Z,78.74
2022-09-28T21:37:44.391Z,78.66
2022-09-28T21:40:47.152Z,78.62
2022-09-28T21:43:49.261Z,78.95
2022-09-28T21:46:51.574Z,78.77
2022-09-28T21:49:53.616Z,78.37
2022-09-28T21:52:55.942Z,79.04
2022-09-28T21:55:58.630Z,79.29
2022-09-28T21:59:01.424Z,79.47
2022-09-28T22:02:05.801Z,79.47
2022-09-28T22:05:09.189Z,79.23
2022-09-28T22:08:11.719Z,79.94
2022-09-28T22:11:19.015Z,80.50
2022-09-28T22:14:21.090Z,80.49
2022-09-28T22:17:23.479Z,80.10
2022-09-28T22:20:25.489Z,80.54
2022-09-28T22:23:30.392Z,80.46
2022-09-28T22:26:33.778Z,80.28
2022-09-28T22:29:36.148Z,80.11
2022-09-28T22:32:38.474Z,79.85
2022-09-28T22:35:40.727Z,80.16
2022-09-28T22:38:43.701Z,80.30
2022-09-28T22:41:46.082Z,80.11
2022-09-28T22:44:48.091Z,79.83
2022-09-28T22:47:50.445Z,79.95
2022-09-28T22:50:53.844Z,80.13
2022-09-28T22:53:56.718Z,80.06
2022-09-28T22:56:58.788Z,79.95
2022-09-28T23:00:01.162Z,79.87
2022-09-28T23:03:03.319Z,79.97
2022-09-28T23:06:06.353Z,79.85
2022-09-28T23:09:08.371Z,80.00
2022-09-28T23:12:10.601Z,79.57
2022-09-28T23:15:13.729Z,79.96
2022-09-28T23:18:16.209Z,80.10
2022-09-28T23:21:19.243Z,80.17
2022-09-28T23:24:21.520Z,80.58
2022-09-28T23:27:23.553Z,80.21
2022-09-28T23:30:26.229Z,80.66
2022-09-28T23:33:28.196Z,80.59
2022-09-28T23:36:30.753Z,80.81
2022-09-28T23:39:33.167Z,80.89
2022-09-28T23:42:35.630Z,81.06
2022-09-28T23:45:37.759Z,80.86
2022-09-28T23:48:40.087Z,80.68
2022-09-28T23:51:42.054Z,80.76
2022-09-28T23:54:44.642Z,80.58
2022-09-28T23:57:46.682Z,80.58
